createdAt,value
2023-01-19T00:00:23.094Z,7.30
2023-01-19T00:01:54.979Z,6.50
2023-01-19T00:03:27.428Z,7.60
2023-01-19T00:04:59.589Z,3.60
2023-01-19T00:06:31.893Z,6.00
2023-01-19T00:08:14.724Z,7.00
2023-01-19T00:09:46.690Z,7.70
2023-01-19T00:11:19.430Z,6.40
2023-01-19T00:12:51.271Z,6.90
2023-01-19T00:14:23.137Z,4.70
2023-01-19T00:15:55.013Z,6.70
2023-01-19T00:17:26.897Z,6.40
2023-01-19T00:18:58.673Z,7.50
2023-01-19T00:20:36.017Z,6.70
2023-01-19T00:22:08.059Z,7.30
2023-01-19T00:23:39.803Z,5.50
2023-01-19T00:25:12.118Z,5.10
2023-01-19T00:26:44.541Z,5.80
2023-01-19T00:28:18.952Z,5.30
2023-01-19T00:29:50.703Z,5.70
2023-01-19T00:31:22.569Z,5.50
2023-01-19T00:32:54.312Z,6.20
2023-01-19T00:34:26.674Z,5.70
2023-01-19T00:35:58.460Z,6.40
2023-01-19T00:37:30.242Z,5.90
2023-01-19T00:39:02.271Z,7.50
2023-01-19T00:40:34.086Z,4.40
2023-01-19T00:42:24.618Z,4.60
2023-01-19T00:43:56.346Z,5.90
2023-01-19T00:45:28.188Z,7.20
2023-01-19T00:47:00.104Z,7.50
2023-01-19T00:48:31.831Z,6.90
2023-01-19T00:50:04.225Z,7.50
2023-01-19T00:51:36.267Z,7.50
2023-01-19T00:53:08.208Z,6.80
2023-01-19T00:54:39.955Z,6.70
2023-01-19T00:56:11.664Z,8.30
2023-01-19T00:57:43.518Z,5.50
2023-01-19T00:59:15.283Z,6.70
2023-01-19T01:00:47.015Z,6.10
2023-01-19T01:02:19.114Z,7.50
2023-01-19T01:03:51.044Z,7.50
2023-01-19T01:05:23.154Z,5.00
2023-01-19T01:06:54.887Z,6.70
2023-01-19T01:08:26.668Z,6.30
2023-01-19T01:09:58.475Z,4.40
2023-01-19T01:11:30.267Z,7.20
2023-01-19T01:13:21.278Z,5.20
2023-01-19T01:14:54.005Z,4.80
2023-01-19T01:16:25.878Z,6.80
2023-01-19T01:17:57.660Z,4.80
2023-01-19T01:19:29.470Z,6.70
2023-01-19T01:21:06.143Z,5.40
2023-01-19T01:22:39.147Z,5.00
2023-01-19T01:24:11.251Z,5.70
2023-01-19T01:25:43.559Z,5.80
2023-01-19T01:27:15.441Z,5.60
2023-01-19T01:28:47.234Z,6.00
2023-01-19T01:30:20.460Z,6.20
2023-01-19T01:31:52.523Z,5.50
2023-01-19T01:33:40.472Z,6.40
2023-01-19T01:35:14.783Z,6.30
2023-01-19T01:36:46.557Z,5.70
2023-01-19T01:38:18.394Z,5.80
2023-01-19T01:39:50.245Z,5.10
2023-01-19T01:41:22.076Z,6.90
2023-01-19T01:42:57.402Z,4.00
2023-01-19T01:44:54.467Z,6.60
2023-01-19T01:46:29.575Z,6.80
2023-01-19T01:48:06.116Z,5.80
2023-01-19T01:49:38.700Z,3.70
2023-01-19T01:51:24.920Z,7.00
2023-01-19T01:53:07.386Z,6.10
2023-01-19T01:54:39.886Z,3.80
2023-01-19T01:56:19.855Z,4.90
2023-01-19T01:57:58.855Z,6.50
2023-01-19T01:59:39.150Z,5.70
2023-01-19T02:01:29.959Z,3.90
2023-01-19T02:03:02.233Z,6.10
2023-01-19T02:04:34.311Z,6.00
2023-01-19T02:06:08.389Z,5.90
2023-01-19T02:08:26.426Z,6.30
2023-01-19T02:10:17.137Z,4.50
2023-01-19T02:12:09.438Z,5.60
2023-01-19T02:13:45.248Z,5.80
2023-01-19T02:15:20.684Z,4.70
2023-01-19T02:16:53.200Z,5.40
2023-01-19T02:18:30.518Z,6.00
2023-01-19T02:20:02.467Z,6.60
2023-01-19T02:21:52.139Z,5.90
2023-01-19T02:23:39.078Z,6.00
2023-01-19T02:25:13.791Z,3.20
2023-01-19T02:26:48.626Z,5.50
2023-01-19T02:28:21.146Z,4.40
2023-01-19T02:29:53.337Z,6.20
2023-01-19T02:31:28.550Z,7.00
2023-01-19T02:33:00.514Z,6.80
2023-01-19T02:34:33.002Z,6.40
2023-01-19T02:36:08.212Z,4.10
2023-01-19T02:37:42.838Z,6.10
2023-01-19T02:39:19.487Z,5.30
2023-01-19T02:40:52.561Z,5.80
2023-01-19T02:43:01.174Z,4.60
2023-01-19T02:44:36.588Z,6.00
2023-01-19T02:46:08.989Z,2.80
2023-01-19T02:47:47.734Z,4.60
2023-01-19T02:49:19.635Z,5.80
2023-01-19T02:51:12.129Z,4.70
2023-01-19T02:52:43.901Z,5.40
2023-01-19T02:54:30.626Z,5.50
2023-01-19T02:56:20.708Z,5.70
2023-01-19T02:58:15.144Z,5.70
2023-01-19T03:00:14.755Z,4.20
2023-01-19T03:01:54.376Z,5.50
2023-01-19T03:03:44.934Z,5.30
2023-01-19T03:05:34.959Z,5.20
2023-01-19T03:07:35.939Z,5.40
2023-01-19T03:09:52.154Z,3.90
2023-01-19T03:11:29.676Z,4.40
2023-01-19T03:13:16.598Z,4.90
2023-01-19T03:14:49.037Z,4.80
2023-01-19T03:16:29.733Z,4.80
2023-01-19T03:18:03.890Z,6.10
2023-01-19T03:19:43.853Z,6.10
2023-01-19T03:21:19.631Z,6.50
2023-01-19T03:23:02.367Z,5.50
2023-01-19T03:24:40.221Z,5.50
2023-01-19T03:26:18.842Z,6.40
2023-01-19T03:27:57.480Z,6.20
2023-01-19T03:29:38.547Z,3.80
2023-01-19T03:31:19.334Z,5.40
2023-01-19T03:33:07.939Z,5.50
2023-01-19T03:34:41.954Z,5.70
2023-01-19T03:36:23.492Z,5.20
2023-01-19T03:37:58.541Z,5.80
2023-01-19T03:39:31.707Z,5.50
2023-01-19T03:41:11.929Z,3.80
2023-01-19T03:42:45.231Z,5.10
2023-01-19T03:44:17.230Z,5.10
2023-01-19T03:45:54.075Z,5.50
2023-01-19T03:47:28.505Z,5.50
2023-01-19T03:49:00.376Z,4.10
2023-01-19T03:50:32.613Z,5.20
2023-01-19T03:52:05.289Z,4.50
2023-01-19T03:53:37.531Z,5.90
2023-01-19T03:55:10.458Z,4.80
2023-01-19T03:56:43.817Z,4.70
2023-01-19T03:58:15.649Z,4.00
2023-01-19T03:59:48.964Z,5.00
2023-01-19T04:01:23.035Z,5.70
2023-01-19T04:02:55.946Z,5.50
2023-01-19T04:04:27.761Z,5.30
2023-01-19T04:05:59.824Z,4.00
2023-01-19T04:07:32.177Z,4.50
2023-01-19T04:09:04.031Z,4.20
2023-01-19T04:10:36.829Z,5.10
2023-01-19T04:12:09.503Z,5.80
2023-01-19T04:13:41.554Z,5.00
2023-01-19T04:15:15.004Z,5.30
2023-01-19T04:16:46.752Z,4.30
2023-01-19T04:18:18.466Z,5.10
2023-01-19T04:19:50.234Z,5.50
2023-01-19T04:21:22.089Z,5.20
2023-01-19T04:22:55.171Z,4.70
2023-01-19T04:24:29.256Z,5.20
2023-01-19T04:26:06.995Z,5.80
2023-01-19T04:27:38.838Z,5.10
2023-01-19T04:29:10.690Z,4.60
2023-01-19T04:30:42.586Z,4.90
2023-01-19T04:32:14.819Z,4.90
2023-01-19T04:33:46.838Z,4.60
2023-01-19T04:35:18.609Z,5.10
2023-01-19T04:36:51.570Z,5.80
2023-01-19T04:38:25.677Z,4.50
2023-01-19T04:39:59.971Z,3.50
2023-01-19T04:41:31.852Z,4.60
2023-01-19T04:43:04.394Z,5.60
2023-01-19T04:44:36.261Z,3.00
2023-01-19T04:46:08.078Z,5.10
2023-01-19T04:47:42.726Z,4.90
2023-01-19T04:49:15.481Z,6.10
2023-01-19T04:50:47.669Z,5.50
2023-01-19T04:52:19.644Z,4.70
2023-01-19T04:53:51.391Z,5.60
2023-01-19T04:55:25.754Z,5.70
2023-01-19T04:56:58.697Z,4.90
2023-01-19T04:58:30.498Z,6.00
2023-01-19T05:00:02.989Z,4.00
2023-01-19T05:01:35.465Z,4.60
2023-01-19T05:03:07.520Z,6.30
2023-01-19T05:04:39.509Z,4.70
2023-01-19T05:06:11.330Z,6.30
2023-01-19T05:07:44.435Z,4.40
2023-01-19T05:09:16.406Z,5.30
2023-01-19T05:10:48.463Z,5.10
2023-01-19T05:12:21.048Z,4.20
2023-01-19T05:13:52.998Z,3.80
2023-01-19T05:15:24.866Z,5.40
2023-01-19T05:16:56.840Z,2.90
2023-01-19T05:18:30.014Z,4.00
2023-01-19T05:20:03.660Z,3.20
2023-01-19T05:21:40.373Z,5.10
2023-01-19T05:23:13.156Z,4.50
2023-01-19T05:24:44.921Z,3.90
2023-01-19T05:26:16.721Z,4.30
2023-01-19T05:27:48.689Z,4.20
2023-01-19T05:29:20.550Z,3.80
2023-01-19T05:30:53.139Z,5.40
2023-01-19T05:32:25.030Z,5.00
2023-01-19T05:33:57.852Z,5.60
2023-01-19T05:35:35.735Z,4.60
2023-01-19T05:37:07.879Z,3.70
2023-01-19T05:38:39.651Z,3.80
2023-01-19T05:40:12.123Z,5.00
2023-01-19T05:41:45.558Z,4.10
2023-01-19T05:43:17.696Z,6.30
2023-01-19T05:44:49.704Z,5.10
2023-01-19T05:46:21.540Z,3.90
2023-01-19T05:48:17.792Z,5.70
2023-01-19T05:49:49.531Z,2.70
2023-01-19T05:51:22.094Z,5.70
2023-01-19T05:52:54.288Z,4.40
2023-01-19T05:54:26.219Z,5.90
2023-01-19T05:56:08.969Z,4.60
2023-01-19T05:57:40.785Z,4.80
2023-01-19T05:59:15.687Z,2.60
2023-01-19T06:00:47.614Z,6.00
2023-01-19T06:02:19.565Z,6.70
2023-01-19T06:03:52.831Z,5.10
2023-01-19T06:05:27.003Z,6.40
2023-01-19T06:06:58.869Z,2.90
2023-01-19T06:08:30.928Z,5.60
2023-01-19T06:10:05.344Z,5.30
2023-01-19T06:11:37.672Z,5.70
2023-01-19T06:13:11.206Z,4.00
2023-01-19T06:14:43.041Z,4.20
2023-01-19T06:16:16.249Z,4.70
2023-01-19T06:17:48.386Z,3.30
2023-01-19T06:19:21.428Z,4.50
2023-01-19T06:20:58.627Z,2.90
2023-01-19T06:22:30.529Z,5.10
2023-01-19T06:24:03.684Z,4.60
2023-01-19T06:25:35.715Z,3.80
2023-01-19T06:27:08.702Z,4.40
2023-01-19T06:28:42.674Z,3.80
2023-01-19T06:30:14.767Z,3.70
2023-01-19T06:31:46.789Z,4.20
2023-01-19T06:33:20.337Z,4.10
2023-01-19T06:34:53.892Z,3.90
2023-01-19T06:36:26.080Z,3.80
2023-01-19T06:37:57.803Z,4.00
2023-01-19T06:39:29.816Z,5.30
2023-01-19T06:41:05.075Z,3.90
2023-01-19T06:42:36.863Z,3.10
2023-01-19T06:44:10.199Z,5.00
2023-01-19T06:45:44.520Z,3.60
2023-01-19T06:47:17.436Z,4.30
2023-01-19T06:48:49.882Z,4.40
2023-01-19T06:50:21.663Z,5.20
2023-01-19T06:51:55.810Z,5.30
2023-01-19T06:53:30.140Z,4.90
2023-01-19T06:55:04.121Z,5.10
2023-01-19T06:56:36.171Z,3.40
2023-01-19T06:58:08.831Z,5.20
2023-01-19T06:59:40.974Z,5.40
2023-01-19T07:01:13.403Z,5.70
2023-01-19T07:02:45.541Z,6.00
2023-01-19T07:04:17.452Z,5.80
2023-01-19T07:05:54.056Z,5.70
2023-01-19T07:07:27.247Z,4.70
2023-01-19T07:09:00.275Z,6.90
2023-01-19T07:11:26.576Z,7.00
2023-01-19T07:12:24.101Z,6.10
2023-01-19T07:13:56.109Z,6.50
2023-01-19T07:15:28.009Z,5.50
2023-01-19T07:17:00.290Z,4.40
2023-01-19T07:18:32.091Z,2.90
2023-01-19T07:20:04.424Z,5.50
2023-01-19T07:21:37.245Z,4.50
2023-01-19T07:23:10.723Z,6.20
2023-01-19T07:24:42.664Z,4.00
2023-01-19T07:26:15.418Z,4.80
2023-01-19T07:27:47.295Z,5.20
2023-01-19T07:29:19.105Z,4.50
2023-01-19T07:30:55.844Z,5.40
2023-01-19T07:32:29.441Z,6.40
2023-01-19T07:34:01.395Z,5.40
2023-01-19T07:35:35.330Z,5.20
2023-01-19T07:37:07.067Z,6.50
2023-01-19T07:38:39.447Z,6.10
2023-01-19T07:40:12.062Z,4.80
2023-01-19T07:41:44.113Z,4.00
2023-01-19T07:43:17.049Z,3.80
2023-01-19T07:44:48.890Z,5.30
2023-01-19T07:46:20.749Z,5.20
2023-01-19T07:47:52.603Z,5.80
2023-01-19T07:49:24.813Z,4.80
2023-01-19T07:51:01.849Z,6.00
2023-01-19T07:52:33.626Z,6.40
2023-01-19T07:54:06.173Z,5.40
2023-01-19T07:55:38.029Z,4.30
2023-01-19T07:57:10.418Z,6.40
2023-01-19T07:58:42.628Z,4.20
2023-01-19T08:00:15.988Z,5.20
2023-01-19T08:01:47.869Z,5.40
2023-01-19T08:03:20.954Z,3.50
2023-01-19T08:04:52.837Z,5.10
2023-01-19T08:06:36.068Z,4.50
2023-01-19T08:08:08.584Z,4.60
2023-01-19T08:09:40.656Z,5.10
2023-01-19T08:11:12.569Z,4.00
2023-01-19T08:12:44.529Z,6.20
2023-01-19T08:14:16.443Z,4.70
2023-01-19T08:15:53.065Z,4.80
2023-01-19T08:17:25.144Z,5.80
2023-01-19T08:18:56.909Z,5.40
2023-01-19T08:20:30.126Z,6.80
2023-01-19T08:22:02.893Z,4.10
2023-01-19T08:23:34.779Z,4.50
2023-01-19T08:25:07.913Z,4.20
2023-01-19T08:26:39.815Z,6.10
2023-01-19T08:28:16.036Z,6.60
2023-01-19T08:29:49.720Z,5.80
2023-01-19T08:31:24.536Z,6.00
2023-01-19T08:33:04.470Z,4.60
2023-01-19T08:34:37.541Z,4.60
2023-01-19T08:36:09.552Z,4.00
2023-01-19T08:37:41.390Z,4.90
2023-01-19T08:39:18.653Z,5.90
2023-01-19T08:40:51.141Z,5.60
2023-01-19T08:42:22.987Z,4.90
2023-01-19T08:43:54.800Z,6.40
2023-01-19T08:45:29.810Z,3.80
2023-01-19T08:47:01.601Z,4.80
2023-01-19T08:48:34.009Z,4.50
2023-01-19T08:50:08.318Z,6.70
2023-01-19T08:51:40.173Z,4.00
2023-01-19T08:53:12.372Z,6.60
2023-01-19T08:54:44.118Z,6.00
2023-01-19T08:56:16.243Z,5.50
2023-01-19T08:57:55.994Z,4.80
2023-01-19T08:59:27.909Z,6.30
2023-01-19T09:01:01.951Z,4.60
2023-01-19T09:02:34.994Z,5.30
2023-01-19T09:04:07.187Z,5.50
2023-01-19T09:05:39.934Z,5.60
2023-01-19T09:07:11.825Z,5.40
2023-01-19T09:08:44.337Z,7.70
2023-01-19T09:10:17.664Z,7.00
2023-01-19T09:11:49.482Z,6.50
2023-01-19T09:13:21.302Z,5.90
2023-01-19T09:14:53.065Z,6.80
2023-01-19T09:16:27.244Z,7.10
2023-01-19T09:17:59.917Z,7.10
2023-01-19T09:19:33.325Z,7.00
2023-01-19T09:21:05.892Z,7.80
2023-01-19T09:22:39.709Z,6.10
2023-01-19T09:24:12.851Z,8.00
2023-01-19T09:25:47.328Z,8.60
2023-01-19T09:27:19.169Z,8.00
2023-01-19T09:28:51.023Z,7.20
2023-01-19T09:30:22.882Z,7.20
2023-01-19T09:31:54.768Z,6.20
2023-01-19T09:33:26.654Z,8.10
2023-01-19T09:34:59.255Z,6.10
2023-01-19T09:36:32.751Z,5.10
2023-01-19T09:38:07.567Z,9.80
2023-01-19T09:39:39.415Z,7.80
2023-01-19T09:41:22.612Z,9.30
2023-01-19T09:43:15.341Z,9.20
2023-01-19T09:44:51.330Z,10.00
2023-01-19T09:46:39.333Z,8.00
2023-01-19T09:48:51.891Z,8.50
2023-01-19T09:50:34.245Z,8.00
2023-01-19T09:52:10.901Z,8.90
2023-01-19T09:53:53.439Z,9.10
2023-01-19T09:55:27.948Z,10.40
2023-01-19T09:57:00.366Z,7.70
2023-01-19T09:58:32.242Z,8.70
2023-01-19T10:00:18.404Z,8.60
2023-01-19T10:02:14.571Z,9.20
2023-01-19T10:03:48.222Z,7.10
2023-01-19T10:05:44.860Z,9.90
2023-01-19T10:07:41.057Z,7.00
2023-01-19T10:09:54.057Z,6.90
2023-01-19T10:11:51.314Z,6.60
2023-01-19T10:13:49.738Z,6.80
2023-01-19T10:16:03.941Z,9.40
2023-01-19T10:17:47.754Z,9.60
2023-01-19T10:19:38.256Z,10.30
2023-01-19T10:21:43.265Z,7.70
2023-01-19T10:23:41.794Z,7.30
2023-01-19T10:25:23.917Z,10.50
2023-01-19T10:26:57.483Z,8.50
2023-01-19T10:28:30.248Z,10.10
2023-01-19T10:30:04.109Z,8.40
2023-01-19T10:31:42.350Z,10.00
2023-01-19T10:33:15.411Z,11.20
2023-01-19T10:34:50.400Z,9.40
2023-01-19T10:36:37.285Z,9.80
2023-01-19T10:38:15.283Z,9.90
2023-01-19T10:39:58.591Z,10.70
2023-01-19T10:41:50.924Z,9.60
2023-01-19T10:43:34.954Z,9.10
2023-01-19T10:45:23.928Z,8.70
2023-01-19T10:47:00.023Z,9.60
2023-01-19T10:48:42.050Z,10.50
2023-01-19T10:50:37.176Z,9.70
2023-01-19T10:52:39.844Z,12.00
2023-01-19T10:54:13.603Z,9.10
2023-01-19T10:55:45.530Z,9.50
2023-01-19T10:57:37.749Z,11.00
2023-01-19T10:59:49.517Z,10.40
2023-01-19T11:01:28.371Z,11.80
2023-01-19T11:03:02.312Z,11.80
2023-01-19T11:04:34.539Z,13.40
2023-01-19T11:06:21.174Z,11.60
2023-01-19T11:07:53.138Z,11.10
2023-01-19T11:09:24.973Z,10.80
2023-01-19T11:11:05.211Z,10.40
2023-01-19T11:12:44.256Z,11.90
2023-01-19T11:14:22.250Z,12.00
2023-01-19T11:15:58.701Z,12.20
2023-01-19T11:17:30.615Z,10.20
2023-01-19T11:19:05.740Z,10.20
2023-01-19T11:20:51.396Z,12.00
2023-01-19T11:22:33.408Z,10.00
2023-01-19T11:24:10.256Z,10.00
2023-01-19T11:25:48.770Z,11.30
2023-01-19T11:27:22.095Z,11.90
2023-01-19T11:28:57.122Z,12.30
2023-01-19T11:30:30.612Z,12.00
2023-01-19T11:32:22.347Z,8.70
2023-01-19T11:33:58.323Z,10.50
2023-01-19T11:35:39.431Z,12.70
2023-01-19T11:37:19.939Z,13.80
2023-01-19T11:38:58.852Z,11.50
2023-01-19T11:40:32.472Z,10.40
2023-01-19T11:42:09.012Z,11.50
2023-01-19T11:43:49.008Z,9.80
2023-01-19T11:45:23.135Z,11.50
2023-01-19T11:47:01.010Z,9.50
2023-01-19T11:48:42.771Z,11.40
2023-01-19T11:50:32.018Z,8.20
2023-01-19T11:52:33.892Z,12.80
2023-01-19T11:54:25.681Z,9.40
2023-01-19T11:56:13.973Z,13.30
2023-01-19T11:57:54.286Z,10.50
2023-01-19T11:59:26.615Z,10.90
2023-01-19T12:01:21.198Z,12.30
2023-01-19T12:03:02.908Z,10.90
2023-01-19T12:04:40.537Z,11.60
2023-01-19T12:06:38.350Z,10.50
2023-01-19T12:08:20.182Z,10.90
2023-01-19T12:10:01.411Z,10.70
2023-01-19T12:11:50.794Z,9.60
2023-01-19T12:13:26.262Z,11.10
2023-01-19T12:15:08.616Z,12.00
2023-01-19T12:16:43.249Z,11.30
2023-01-19T12:18:28.452Z,12.20
2023-01-19T12:20:25.152Z,10.80
2023-01-19T12:21:57.513Z,12.20
2023-01-19T12:24:23.256Z,12.60
2023-01-19T12:26:24.970Z,10.90
2023-01-19T12:27:59.362Z,11.80
2023-01-19T12:29:36.466Z,12.90
2023-01-19T12:31:10.966Z,11.90
2023-01-19T12:32:43.523Z,12.50
2023-01-19T12:34:31.442Z,13.70
2023-01-19T12:36:10.087Z,8.70
2023-01-19T12:37:43.955Z,14.10
2023-01-19T12:39:23.691Z,12.40
2023-01-19T12:41:28.204Z,10.40
2023-01-19T12:43:04.811Z,13.20
2023-01-19T12:44:36.869Z,12.40
2023-01-19T12:46:31.458Z,14.20
2023-01-19T12:48:08.822Z,13.90
2023-01-19T12:49:48.455Z,12.70
2023-01-19T12:51:28.882Z,13.40
2023-01-19T12:53:03.648Z,12.60
2023-01-19T12:54:36.519Z,14.40
2023-01-19T12:56:10.539Z,11.80
2023-01-19T12:58:15.289Z,12.20
2023-01-19T12:59:47.601Z,13.90
2023-01-19T13:01:21.850Z,11.10
2023-01-19T13:03:00.536Z,11.10
2023-01-19T13:04:34.087Z,12.00
2023-01-19T13:06:05.910Z,10.80
2023-01-19T13:08:05.588Z,9.80
2023-01-19T13:09:40.027Z,12.50
2023-01-19T13:11:19.741Z,9.40
2023-01-19T13:13:18.575Z,11.60
2023-01-19T13:15:10.510Z,13.20
2023-01-19T13:16:42.316Z,12.10
2023-01-19T13:18:28.726Z,13.40
2023-01-19T13:20:27.534Z,14.00
2023-01-19T13:22:51.572Z,12.80
2023-01-19T13:24:24.137Z,9.80
2023-01-19T13:26:06.727Z,11.10
2023-01-19T13:27:40.312Z,10.00
2023-01-19T13:29:41.334Z,10.60
2023-01-19T13:31:15.042Z,13.40
2023-01-19T13:32:48.271Z,12.90
2023-01-19T13:34:28.182Z,12.70
2023-01-19T13:36:00.152Z,13.10
2023-01-19T13:37:41.704Z,10.60
2023-01-19T13:39:45.371Z,11.30
2023-01-19T13:41:40.780Z,10.10
2023-01-19T13:43:29.297Z,11.90
2023-01-19T13:45:16.716Z,12.10
2023-01-19T13:46:50.419Z,13.70
2023-01-19T13:48:25.267Z,11.10
2023-01-19T13:50:01.059Z,9.40
2023-01-19T13:51:33.232Z,13.20
2023-01-19T13:53:21.241Z,10.30
2023-01-19T13:55:05.977Z,8.90
2023-01-19T13:56:38.701Z,13.80
2023-01-19T13:58:24.257Z,12.50
2023-01-19T14:00:18.965Z,12.40
2023-01-19T14:01:51.907Z,13.80
2023-01-19T14:03:25.125Z,12.30
2023-01-19T14:04:57.502Z,12.10
2023-01-19T14:06:48.940Z,12.90
2023-01-19T14:08:25.656Z,10.20
2023-01-19T14:10:14.441Z,11.90
2023-01-19T14:12:15.269Z,12.90
2023-01-19T14:13:47.986Z,9.40
2023-01-19T14:15:20.182Z,11.30
2023-01-19T14:16:52.377Z,11.90
2023-01-19T14:18:35.567Z,11.60
2023-01-19T14:20:29.997Z,11.40
2023-01-19T14:22:07.277Z,8.60
2023-01-19T14:23:47.272Z,11.40
2023-01-19T14:25:32.033Z,10.20
2023-01-19T14:27:25.332Z,8.40
2023-01-19T14:28:59.212Z,9.00
2023-01-19T14:30:32.587Z,10.10
2023-01-19T14:32:18.047Z,9.40
2023-01-19T14:33:55.957Z,10.80
2023-01-19T14:35:30.060Z,10.70
2023-01-19T14:37:06.673Z,10.50
2023-01-19T14:38:47.255Z,11.10
2023-01-19T14:40:24.539Z,9.10
2023-01-19T14:42:03.179Z,10.60
2023-01-19T14:43:35.184Z,11.20
2023-01-19T14:45:18.335Z,9.90
2023-01-19T14:46:50.755Z,7.40
2023-01-19T14:48:22.786Z,11.50
2023-01-19T14:50:03.656Z,9.20
2023-01-19T14:51:37.098Z,9.50
2023-01-19T14:53:25.602Z,8.20
2023-01-19T14:55:00.821Z,9.20
2023-01-19T14:56:34.186Z,10.60
2023-01-19T14:58:16.376Z,12.70
2023-01-19T14:59:50.495Z,8.80
2023-01-19T15:01:25.270Z,9.90
2023-01-19T15:02:59.262Z,8.40
2023-01-19T15:04:31.023Z,11.10
2023-01-19T15:06:04.343Z,9.70
2023-01-19T15:07:40.572Z,11.70
2023-01-19T15:09:14.451Z,10.30
2023-01-19T15:10:46.766Z,10.80
2023-01-19T15:12:21.445Z,7.70
2023-01-19T15:13:55.410Z,6.50
2023-01-19T15:15:33.083Z,7.80
2023-01-19T15:17:05.388Z,10.60
2023-01-19T15:18:39.559Z,9.80
2023-01-19T15:20:19.356Z,8.80
2023-01-19T15:21:52.114Z,9.80
2023-01-19T15:23:24.289Z,10.00
2023-01-19T15:25:00.263Z,9.00
2023-01-19T15:26:32.127Z,10.80
2023-01-19T15:28:13.839Z,10.30
2023-01-19T15:29:46.145Z,9.30
2023-01-19T15:31:22.417Z,11.60
2023-01-19T15:32:55.070Z,9.70
2023-01-19T15:34:26.877Z,9.70
2023-01-19T15:36:01.754Z,11.40
2023-01-19T15:37:34.677Z,11.60
2023-01-19T15:39:06.530Z,9.40
2023-01-19T15:40:41.216Z,10.00
2023-01-19T15:42:15.756Z,8.20
2023-01-19T15:43:49.023Z,9.40
2023-01-19T15:45:33.487Z,9.60
2023-01-19T15:47:12.799Z,10.80
2023-01-19T15:48:45.228Z,11.60
2023-01-19T15:50:17.446Z,10.20
2023-01-19T15:51:49.730Z,10.20
2023-01-19T15:53:24.233Z,11.20
2023-01-19T15:54:56.447Z,8.80
2023-01-19T15:56:31.562Z,11.00
2023-01-19T15:58:06.786Z,12.40
2023-01-19T15:59:38.978Z,12.00
2023-01-19T16:01:17.427Z,12.30
2023-01-19T16:02:53.515Z,11.30
2023-01-19T16:04:25.436Z,10.30
2023-01-19T16:06:01.731Z,13.40
2023-01-19T16:07:36.207Z,12.50
2023-01-19T16:09:09.707Z,12.60
2023-01-19T16:10:43.353Z,13.70
2023-01-19T16:12:16.604Z,12.60
2023-01-19T16:13:48.492Z,10.60
2023-01-19T16:15:31.289Z,11.20
2023-01-19T16:17:03.087Z,12.90
2023-01-19T16:18:36.528Z,12.90
2023-01-19T16:20:14.313Z,11.40
2023-01-19T16:21:47.687Z,10.40
2023-01-19T16:23:20.799Z,11.00
2023-01-19T16:24:53.628Z,11.20
2023-01-19T16:26:35.815Z,10.20
2023-01-19T16:28:09.353Z,12.00
2023-01-19T16:29:41.772Z,8.40
2023-01-19T16:31:15.167Z,12.20
2023-01-19T16:32:47.618Z,10.00
2023-01-19T16:34:19.688Z,10.60
2023-01-19T16:35:52.796Z,10.20
2023-01-19T16:37:26.694Z,9.40
2023-01-19T16:39:15.639Z,9.70
2023-01-19T16:40:48.556Z,8.40
2023-01-19T16:42:20.369Z,8.40
2023-01-19T16:43:57.754Z,8.00
2023-01-19T16:45:29.863Z,10.30
2023-01-19T16:47:01.724Z,7.40
2023-01-19T16:48:34.043Z,10.40
2023-01-19T16:50:06.659Z,11.20
2023-01-19T16:51:38.886Z,11.10
2023-01-19T16:53:10.773Z,9.00
2023-01-19T16:54:43.317Z,11.40
2023-01-19T16:56:15.277Z,10.20
2023-01-19T16:57:48.362Z,10.10
2023-01-19T16:59:24.048Z,9.70
2023-01-19T17:00:56.008Z,9.90
2023-01-19T17:02:31.161Z,9.90
2023-01-19T17:04:04.792Z,10.60
2023-01-19T17:05:39.316Z,10.80
2023-01-19T17:07:12.467Z,11.20
2023-01-19T17:08:45.194Z,9.70
2023-01-19T17:10:19.655Z,8.70
2023-01-19T17:11:54.707Z,10.70
2023-01-19T17:13:27.520Z,9.50
2023-01-19T17:15:00.028Z,12.50
2023-01-19T17:16:35.505Z,8.80
2023-01-19T17:18:12.691Z,11.00
2023-01-19T17:19:45.335Z,9.70
2023-01-19T17:21:19.957Z,11.90
2023-01-19T17:22:52.038Z,7.80
2023-01-19T17:24:24.051Z,10.90
2023-01-19T17:25:58.418Z,10.10
2023-01-19T17:27:31.295Z,9.10
2023-01-19T17:29:08.044Z,11.30
2023-01-19T17:30:41.545Z,9.20
2023-01-19T17:32:14.744Z,9.90
2023-01-19T17:33:51.700Z,10.70
2023-01-19T17:35:23.582Z,11.10
2023-01-19T17:37:03.451Z,8.10
2023-01-19T17:38:37.910Z,9.30
2023-01-19T17:40:12.218Z,10.90
2023-01-19T17:41:48.867Z,9.40
2023-01-19T17:43:22.038Z,10.50
2023-01-19T17:44:53.966Z,13.00
2023-01-19T17:46:29.866Z,8.30
2023-01-19T17:48:04.973Z,6.90
2023-01-19T17:49:37.326Z,11.70
2023-01-19T17:51:12.766Z,10.20
2023-01-19T17:52:45.619Z,10.10
2023-01-19T17:54:17.995Z,12.00
2023-01-19T17:55:49.892Z,10.90
2023-01-19T17:57:21.784Z,11.70
2023-01-19T17:58:53.695Z,10.90
2023-01-19T18:00:25.848Z,9.90
2023-01-19T18:01:57.923Z,9.80
2023-01-19T18:03:29.896Z,11.10
2023-01-19T18:05:03.479Z,12.20
2023-01-19T18:06:37.709Z,13.10
2023-01-19T18:08:10.269Z,11.80
2023-01-19T18:09:42.379Z,14.00
2023-01-19T18:11:16.601Z,12.70
2023-01-19T18:12:48.508Z,12.50
2023-01-19T18:14:22.030Z,13.70
2023-01-19T18:16:29.289Z,9.70
2023-01-19T18:18:01.123Z,13.00
2023-01-19T18:19:34.735Z,10.90
2023-01-19T18:21:11.314Z,10.10
2023-01-19T18:22:43.201Z,7.20
2023-01-19T18:24:15.852Z,11.70
2023-01-19T18:25:49.471Z,10.00
2023-01-19T18:27:21.992Z,10.50
2023-01-19T18:28:58.105Z,8.10
2023-01-19T18:30:31.180Z,10.40
2023-01-19T18:32:03.018Z,12.10
2023-01-19T18:33:40.901Z,10.80
2023-01-19T18:35:12.899Z,9.30
2023-01-19T18:36:44.838Z,9.10
2023-01-19T18:38:24.301Z,11.10
2023-01-19T18:39:59.975Z,8.10
2023-01-19T18:41:31.897Z,10.80
2023-01-19T18:43:03.734Z,10.60
2023-01-19T18:44:35.816Z,9.80
2023-01-19T18:46:08.255Z,10.50
2023-01-19T18:47:40.169Z,9.40
2023-01-19T18:49:12.083Z,8.90
2023-01-19T18:50:45.132Z,9.10
2023-01-19T18:52:17.127Z,8.20
2023-01-19T18:53:49.053Z,11.30
2023-01-19T18:55:21.162Z,9.30
2023-01-19T18:56:54.017Z,10.80
2023-01-19T18:58:28.915Z,11.50
2023-01-19T19:00:00.760Z,11.40
2023-01-19T19:01:35.219Z,9.30
2023-01-19T19:03:10.320Z,9.30
2023-01-19T19:04:43.944Z,12.70
2023-01-19T19:06:22.652Z,9.80
2023-01-19T19:07:54.724Z,12.00
2023-01-19T19:09:28.242Z,10.10
2023-01-19T19:11:01.398Z,12.80
2023-01-19T19:12:33.314Z,12.70
2023-01-19T19:14:06.847Z,13.70
2023-01-19T19:15:38.769Z,12.00
2023-01-19T19:17:11.173Z,8.60
2023-01-19T19:18:43.490Z,11.10
2023-01-19T19:20:17.276Z,11.80
2023-01-19T19:21:51.407Z,9.60
2023-01-19T19:23:25.443Z,10.70
2023-01-19T19:24:57.887Z,11.40
2023-01-19T19:26:29.986Z,9.80
2023-01-19T19:28:08.161Z,11.10
2023-01-19T19:29:45.404Z,10.60
2023-01-19T19:31:21.088Z,11.50
2023-01-19T19:32:59.948Z,8.80
2023-01-19T19:34:32.188Z,9.70
2023-01-19T19:36:06.616Z,10.90
2023-01-19T19:37:38.867Z,11.00
2023-01-19T19:39:10.722Z,12.10
2023-01-19T19:40:42.527Z,11.50
2023-01-19T19:42:14.355Z,11.70
2023-01-19T19:43:46.222Z,11.40
2023-01-19T19:45:18.094Z,10.40
2023-01-19T19:46:50.516Z,11.40
2023-01-19T19:48:22.627Z,9.20
2023-01-19T19:49:54.756Z,10.80
2023-01-19T19:51:28.642Z,11.80
2023-01-19T19:53:02.002Z,8.30
2023-01-19T19:54:36.123Z,10.70
2023-01-19T19:56:16.909Z,10.30
2023-01-19T19:57:49.323Z,11.40
2023-01-19T19:59:21.776Z,12.30
2023-01-19T20:00:55.230Z,12.60
2023-01-19T20:02:27.986Z,8.80
2023-01-19T20:04:19.969Z,9.30
2023-01-19T20:05:52.441Z,9.60
2023-01-19T20:07:27.506Z,7.90
2023-01-19T20:09:01.397Z,11.30
2023-01-19T20:10:34.747Z,10.80
2023-01-19T20:12:10.175Z,9.90
2023-01-19T20:13:48.248Z,10.90
2023-01-19T20:15:20.244Z,11.40
2023-01-19T20:16:53.393Z,8.80
2023-01-19T20:18:25.909Z,9.00
2023-01-19T20:20:03.541Z,10.10
2023-01-19T20:21:41.669Z,10.70
2023-01-19T20:23:18.561Z,11.30
2023-01-19T20:24:54.291Z,10.40
2023-01-19T20:26:33.868Z,10.20
2023-01-19T20:28:05.947Z,10.70
2023-01-19T20:29:38.828Z,10.60
2023-01-19T20:31:17.562Z,9.10
2023-01-19T20:32:51.492Z,9.10
2023-01-19T20:34:37.773Z,12.80
2023-01-19T20:36:11.416Z,10.60
2023-01-19T20:37:43.397Z,12.10
2023-01-19T20:39:21.734Z,12.00
2023-01-19T20:40:53.971Z,11.00
2023-01-19T20:42:26.804Z,10.70
2023-01-19T20:43:58.719Z,11.10
2023-01-19T20:45:30.519Z,10.80
2023-01-19T20:47:02.487Z,8.40
2023-01-19T20:48:34.712Z,8.30
2023-01-19T20:50:08.790Z,10.90
2023-01-19T20:51:43.512Z,10.40
2023-01-19T20:53:16.576Z,10.10
2023-01-19T20:54:48.435Z,7.80
2023-01-19T20:56:20.267Z,9.60
2023-01-19T20:57:52.067Z,10.70
2023-01-19T20:59:24.119Z,6.70
2023-01-19T21:00:55.956Z,11.80
2023-01-19T21:02:31.519Z,10.10
2023-01-19T21:04:04.409Z,10.30
2023-01-19T21:05:36.972Z,9.90
2023-01-19T21:07:09.059Z,9.80
2023-01-19T21:08:41.331Z,11.20